createdAt,value
2017-08-03T00:02:06.915Z,20.42
2017-08-03T00:04:34.327Z,20.42
2017-08-03T00:07:01.727Z,20.38
2017-08-03T00:09:29.151Z,20.41
2017-08-03T00:11:56.561Z,20.43
2017-08-03T00:14:23.967Z,20.44
2017-08-03T00:16:51.367Z,20.45
2017-08-03T00:19:18.774Z,20.46
2017-08-03T00:21:46.179Z,20.40
2017-08-03T00:24:13.588Z,20.40
2017-08-03T00:26:41.001Z,20.40
2017-08-03T00:29:08.407Z,20.40
2017-08-03T00:31:35.803Z,20.37
2017-08-03T00:34:03.251Z,20.37
2017-08-03T00:36:30.663Z,20.38
2017-08-03T00:38:58.052Z,20.38
2017-08-03T00:41:25.456Z,20.41
2017-08-03T00:43:52.868Z,20.40
2017-08-03T00:46:20.281Z,20.41
2017-08-03T00:48:47.672Z,20.42
2017-08-03T00:51:15.071Z,20.45
2017-08-03T00:53:42.482Z,20.46
2017-08-03T00:56:09.876Z,20.40
2017-08-03T00:58:37.291Z,20.37
2017-08-03T01:01:04.736Z,20.36
2017-08-03T01:03:32.138Z,20.35
2017-08-03T01:05:59.551Z,20.34
2017-08-03T01:08:26.970Z,20.35
2017-08-03T01:10:54.391Z,20.33
2017-08-03T01:13:21.827Z,20.31
2017-08-03T01:15:49.256Z,20.30
2017-08-03T01:18:16.663Z,20.31
2017-08-03T01:20:44.079Z,20.34
2017-08-03T01:23:11.505Z,20.33
2017-08-03T01:25:38.904Z,20.34
2017-08-03T01:28:06.299Z,20.33
2017-08-03T01:30:33.709Z,20.36
2017-08-03T01:33:01.108Z,20.47
2017-08-03T01:35:28.528Z,20.40
2017-08-03T01:37:55.944Z,20.44
2017-08-03T01:40:23.336Z,20.42
2017-08-03T01:42:51.049Z,20.44
2017-08-03T01:45:18.452Z,20.41
2017-08-03T01:47:45.867Z,20.36
2017-08-03T01:50:13.301Z,20.35
2017-08-03T01:52:40.713Z,20.36
2017-08-03T01:55:08.119Z,20.36
2017-08-03T01:57:35.515Z,20.37
2017-08-03T02:00:02.940Z,20.42
2017-08-03T02:02:30.346Z,20.45
2017-08-03T02:04:57.758Z,20.44
2017-08-03T02:07:25.150Z,20.42
2017-08-03T02:09:52.567Z,20.41
2017-08-03T02:12:19.964Z,20.40
2017-08-03T02:14:47.375Z,20.42
2017-08-03T02:17:14.778Z,20.41
2017-08-03T02:19:42.194Z,20.42
2017-08-03T02:22:09.591Z,20.49
2017-08-03T02:24:36.988Z,20.50
2017-08-03T02:27:04.553Z,20.49
2017-08-03T02:29:31.952Z,20.46
2017-08-03T02:31:59.351Z,20.46
2017-08-03T02:34:26.767Z,20.47
2017-08-03T02:36:54.164Z,20.43
2017-08-03T02:39:21.555Z,20.44
2017-08-03T02:41:48.978Z,20.46
2017-08-03T02:44:16.379Z,20.46
2017-08-03T02:46:43.803Z,20.47
2017-08-03T02:49:11.200Z,20.47
2017-08-03T02:51:38.608Z,20.47
2017-08-03T02:54:06.068Z,20.51
2017-08-03T02:56:33.468Z,20.49
2017-08-03T02:59:00.883Z,20.56
2017-08-03T03:01:28.283Z,20.56
2017-08-03T03:03:55.699Z,20.50
2017-08-03T03:06:23.102Z,20.46
2017-08-03T03:08:50.498Z,20.48
2017-08-03T03:11:17.906Z,20.48
2017-08-03T03:13:45.305Z,20.47
2017-08-03T03:16:12.730Z,20.45
2017-08-03T03:18:40.148Z,20.44
2017-08-03T03:21:07.542Z,20.44
2017-08-03T03:23:34.959Z,20.46
2017-08-03T03:26:02.353Z,20.44
2017-08-03T03:28:29.793Z,20.50
2017-08-03T03:30:57.185Z,20.56
2017-08-03T03:33:24.584Z,20.49
2017-08-03T03:35:52.247Z,20.48
2017-08-03T03:38:19.647Z,20.54
2017-08-03T03:40:47.047Z,20.53
2017-08-03T03:43:14.442Z,20.50
2017-08-03T03:45:41.860Z,20.48
2017-08-03T03:48:09.265Z,20.52
2017-08-03T03:50:36.659Z,20.53
2017-08-03T03:53:04.148Z,20.52
2017-08-03T03:55:31.547Z,20.48
2017-08-03T03:57:58.953Z,20.48
2017-08-03T04:00:26.369Z,20.48
2017-08-03T04:02:53.767Z,20.56
2017-08-03T04:05:21.188Z,20.56
2017-08-03T04:07:48.689Z,20.57
2017-08-03T04:10:16.096Z,20.54
2017-08-03T04:12:43.519Z,20.63
2017-08-03T04:15:10.912Z,20.62
2017-08-03T04:17:41.611Z,20.61
2017-08-03T04:20:09.038Z,20.63
2017-08-03T04:22:36.468Z,20.67
2017-08-03T04:25:03.879Z,20.66
2017-08-03T04:27:31.300Z,20.67
2017-08-03T04:29:58.729Z,20.73
2017-08-03T04:32:26.107Z,20.74
2017-08-03T04:34:53.499Z,20.72
2017-08-03T04:37:20.907Z,20.67
2017-08-03T04:39:48.359Z,20.70
2017-08-03T04:42:15.759Z,20.73
2017-08-03T04:44:43.159Z,20.73
2017-08-03T04:47:10.554Z,20.75
2017-08-03T04:49:37.952Z,20.75
2017-08-03T04:52:05.347Z,20.75
2017-08-03T04:54:32.753Z,20.78
2017-08-03T04:57:00.152Z,20.82
2017-08-03T04:59:27.574Z,20.85
2017-08-03T05:01:54.999Z,20.86
2017-08-03T05:04:22.411Z,20.89
2017-08-03T05:06:49.814Z,20.92
2017-08-03T05:09:17.243Z,20.98
2017-08-03T05:11:44.681Z,20.98
2017-08-03T05:14:12.092Z,20.99
2017-08-03T05:16:39.483Z,20.97
2017-08-03T05:19:06.919Z,20.98
2017-08-03T05:21:34.348Z,20.96
2017-08-03T05:24:01.775Z,21.02
2017-08-03T05:26:29.192Z,20.98
2017-08-03T05:28:56.593Z,20.99
2017-08-03T05:31:24.028Z,21.00
2017-08-03T05:33:51.445Z,21.01
2017-08-03T05:36:18.843Z,21.02
2017-08-03T05:38:46.243Z,21.00
2017-08-03T05:41:13.645Z,20.94
2017-08-03T05:43:41.067Z,20.93
2017-08-03T05:46:08.504Z,20.94
2017-08-03T05:48:35.901Z,20.98
2017-08-03T05:51:03.312Z,20.99
2017-08-03T05:53:30.763Z,20.97
2017-08-03T05:55:58.189Z,21.00
2017-08-03T05:58:25.631Z,20.97
2017-08-03T06:00:53.016Z,21.02
2017-08-03T06:03:20.448Z,21.03
2017-08-03T06:05:47.853Z,21.06
2017-08-03T06:08:15.281Z,21.06
2017-08-03T06:10:42.680Z,21.04
2017-08-03T06:13:10.089Z,21.04
2017-08-03T06:15:37.496Z,21.12
2017-08-03T06:18:04.928Z,21.10
2017-08-03T06:20:32.347Z,21.13
2017-08-03T06:22:59.796Z,21.14
2017-08-03T06:25:27.207Z,21.15
2017-08-03T06:27:54.636Z,21.21
2017-08-03T06:30:22.021Z,21.30
2017-08-03T06:32:49.434Z,21.35
2017-08-03T06:35:16.865Z,21.41
2017-08-03T06:37:44.315Z,21.50
2017-08-03T06:40:11.712Z,21.51
2017-08-03T06:42:39.120Z,21.51
2017-08-03T06:45:06.530Z,21.57
2017-08-03T06:47:33.948Z,21.63
2017-08-03T06:50:01.355Z,21.69
2017-08-03T06:52:28.817Z,21.75
2017-08-03T06:54:56.275Z,21.84
2017-08-03T06:57:23.732Z,21.90
2017-08-03T06:59:51.215Z,21.95
2017-08-03T07:02:18.635Z,21.97
2017-08-03T07:04:46.051Z,22.01
2017-08-03T07:07:13.452Z,21.99
2017-08-03T07:09:40.860Z,22.00
2017-08-03T07:12:08.267Z,21.99
2017-08-03T07:14:35.736Z,22.00
2017-08-03T07:17:03.241Z,21.88
2017-08-03T07:19:30.740Z,21.79
2017-08-03T07:21:58.160Z,21.79
2017-08-03T07:24:25.597Z,21.82
2017-08-03T07:26:52.992Z,21.81
2017-08-03T07:29:20.520Z,21.89
2017-08-03T07:31:47.959Z,21.89
2017-08-03T07:34:15.387Z,21.93
2017-08-03T07:36:42.802Z,22.07
2017-08-03T07:39:10.250Z,22.09
2017-08-03T07:41:37.677Z,22.26
2017-08-03T07:44:05.144Z,22.44
2017-08-03T07:46:32.548Z,22.57
2017-08-03T07:49:00.008Z,22.63
2017-08-03T07:51:27.424Z,22.68
2017-08-03T07:53:54.852Z,22.66
2017-08-03T07:56:22.256Z,22.62
2017-08-03T07:58:49.655Z,22.59
2017-08-03T08:01:17.387Z,22.55
2017-08-03T08:03:44.828Z,22.48
2017-08-03T08:06:13.059Z,22.44
2017-08-03T08:08:41.195Z,22.39
2017-08-03T08:11:09.003Z,22.36
2017-08-03T08:13:36.444Z,22.38
2017-08-03T08:16:05.651Z,22.40
2017-08-03T08:18:34.270Z,22.48
2017-08-03T08:21:01.649Z,22.49
2017-08-03T08:23:29.770Z,22.53
2017-08-03T08:25:57.239Z,22.65
2017-08-03T08:28:24.687Z,22.67
2017-08-03T08:30:52.081Z,22.69
2017-08-03T08:33:19.476Z,22.77
2017-08-03T08:35:46.911Z,22.81
2017-08-03T08:38:14.332Z,22.92
2017-08-03T08:40:41.794Z,23.01
2017-08-03T08:43:09.277Z,23.00
2017-08-03T08:45:36.659Z,23.01
2017-08-03T08:48:04.071Z,23.02
2017-08-03T08:50:31.471Z,23.09
2017-08-03T08:52:58.863Z,23.07
2017-08-03T08:55:26.298Z,23.18
2017-08-03T08:57:53.683Z,23.29
2017-08-03T09:00:21.126Z,23.38
2017-08-03T09:02:48.527Z,23.51
2017-08-03T09:05:15.955Z,23.63
2017-08-03T09:07:43.376Z,23.71
2017-08-03T09:10:10.783Z,23.77
2017-08-03T09:12:38.230Z,23.75
2017-08-03T09:15:05.630Z,23.77
2017-08-03T09:17:33.018Z,23.81
2017-08-03T09:20:00.427Z,23.76
2017-08-03T09:22:27.821Z,23.74
2017-08-03T09:24:55.239Z,23.70
2017-08-03T09:27:22.633Z,23.69
2017-08-03T09:29:50.039Z,23.65
2017-08-03T09:32:17.423Z,23.69
2017-08-03T09:34:44.831Z,23.75
2017-08-03T09:37:12.280Z,23.84
2017-08-03T09:39:39.733Z,24.03
2017-08-03T09:42:07.158Z,24.24
2017-08-03T09:44:34.572Z,24.51
2017-08-03T09:47:02.003Z,24.74
2017-08-03T09:49:29.503Z,25.04
2017-08-03T09:51:56.944Z,25.26
2017-08-03T09:54:24.383Z,25.51
2017-08-03T09:56:51.822Z,25.70
2017-08-03T09:59:19.212Z,26.13
2017-08-03T10:01:46.656Z,26.57
2017-08-03T10:04:20.875Z,26.91
2017-08-03T10:06:48.264Z,26.83
2017-08-03T10:09:15.677Z,26.79
2017-08-03T10:11:43.083Z,26.77
2017-08-03T10:14:10.502Z,26.79
2017-08-03T10:16:37.912Z,26.71
2017-08-03T10:19:05.315Z,26.92
2017-08-03T10:21:32.736Z,26.60
2017-08-03T10:24:00.164Z,26.61
2017-08-03T10:26:27.576Z,26.73
2017-08-03T10:29:09.403Z,26.95
2017-08-03T10:31:36.808Z,26.97
2017-08-03T10:34:04.243Z,27.00
2017-08-03T10:36:32.049Z,27.12
2017-08-03T10:38:59.452Z,27.66
2017-08-03T10:41:26.881Z,27.35
2017-08-03T10:43:54.324Z,26.57
2017-08-03T10:46:21.725Z,26.45
2017-08-03T10:48:49.154Z,26.05
2017-08-03T10:51:16.595Z,25.41
2017-08-03T10:53:44.031Z,25.24
2017-08-03T10:56:11.473Z,25.08
2017-08-03T10:58:38.893Z,24.92
2017-08-03T11:01:06.318Z,24.65
2017-08-03T11:03:33.724Z,24.42
2017-08-03T11:06:01.175Z,24.29
2017-08-03T11:08:28.581Z,24.24
2017-08-03T11:10:55.975Z,24.09
2017-08-03T11:13:23.371Z,24.13
2017-08-03T11:15:58.028Z,24.45
2017-08-03T11:18:25.451Z,24.31
2017-08-03T11:20:52.884Z,24.19
2017-08-03T11:23:20.295Z,24.31
2017-08-03T11:25:47.742Z,24.38
2017-08-03T11:28:15.147Z,24.15
2017-08-03T11:30:42.597Z,24.38
2017-08-03T11:33:09.983Z,24.92
2017-08-03T11:35:37.399Z,25.07
2017-08-03T11:38:04.838Z,25.68
2017-08-03T11:40:32.236Z,25.54
2017-08-03T11:42:59.734Z,25.62
2017-08-03T11:45:27.132Z,25.29
2017-08-03T11:47:54.527Z,25.49
2017-08-03T11:50:22.015Z,25.64
2017-08-03T11:52:49.403Z,25.53
2017-08-03T11:55:16.809Z,25.14
2017-08-03T11:57:44.233Z,25.24
2017-08-03T12:00:11.627Z,25.33
2017-08-03T12:02:45.579Z,25.16
2017-08-03T12:05:14.108Z,25.12
2017-08-03T12:07:41.498Z,25.28
2017-08-03T12:10:08.887Z,25.55
2017-08-03T12:12:37.139Z,25.18
2017-08-03T12:15:04.521Z,25.38
2017-08-03T12:17:31.927Z,25.38
2017-08-03T12:19:59.364Z,25.83
2017-08-03T12:22:26.804Z,26.06
2017-08-03T12:24:54.199Z,25.75
2017-08-03T12:27:21.619Z,25.35
2017-08-03T12:29:49.040Z,25.45
2017-08-03T12:32:16.480Z,25.09
2017-08-03T12:34:45.824Z,25.40
2017-08-03T12:37:13.240Z,25.46
2017-08-03T12:39:40.654Z,25.42
2017-08-03T12:42:08.099Z,25.59
2017-08-03T12:44:35.498Z,25.70
2017-08-03T12:47:02.964Z,25.30
2017-08-03T12:49:30.387Z,24.87
2017-08-03T12:51:57.820Z,24.75
2017-08-03T12:54:25.237Z,24.84
2017-08-03T12:56:52.682Z,24.94
2017-08-03T12:59:20.098Z,24.96
2017-08-03T13:01:47.482Z,25.10
2017-08-03T13:04:14.897Z,24.98
2017-08-03T13:06:42.283Z,25.18
2017-08-03T13:09:09.731Z,25.47
2017-08-03T13:11:37.127Z,25.73
2017-08-03T13:14:04.526Z,26.04
2017-08-03T13:16:31.919Z,26.33
2017-08-03T13:18:59.317Z,26.29
2017-08-03T13:21:26.739Z,26.41
2017-08-03T13:23:54.139Z,26.01
2017-08-03T13:26:21.603Z,26.32
2017-08-03T13:28:49.032Z,26.59
2017-08-03T13:31:16.404Z,26.78
2017-08-03T13:33:43.804Z,26.41
2017-08-03T13:36:11.175Z,26.40
2017-08-03T13:38:38.631Z,26.60
2017-08-03T13:41:06.019Z,26.53
2017-08-03T13:43:33.426Z,26.48
2017-08-03T13:46:00.871Z,26.31
2017-08-03T13:48:28.272Z,26.33
2017-08-03T13:50:55.693Z,26.65
2017-08-03T13:53:23.119Z,26.82
2017-08-03T13:55:50.525Z,26.56
2017-08-03T13:58:17.936Z,26.63
2017-08-03T14:00:45.359Z,26.59
2017-08-03T14:03:12.789Z,26.43
2017-08-03T14:05:40.212Z,26.46
2017-08-03T14:08:07.625Z,26.53
2017-08-03T14:10:35.058Z,26.68
2017-08-03T14:13:02.506Z,26.73
2017-08-03T14:15:29.919Z,26.73
2017-08-03T14:17:59.422Z,26.88
2017-08-03T14:20:26.807Z,27.22
2017-08-03T14:22:54.244Z,27.29
2017-08-03T14:25:21.657Z,27.59
2017-08-03T14:27:49.103Z,27.09
2017-08-03T14:30:16.507Z,27.23
2017-08-03T14:32:43.915Z,27.47
2017-08-03T14:35:11.366Z,27.21
2017-08-03T14:37:38.743Z,27.02
2017-08-03T14:40:06.135Z,27.09
2017-08-03T14:42:33.531Z,26.98
2017-08-03T14:45:00.946Z,27.25
2017-08-03T14:47:28.355Z,27.56
2017-08-03T14:49:56.758Z,27.55
2017-08-03T14:52:24.188Z,27.57
2017-08-03T14:54:51.623Z,27.46
2017-08-03T14:57:19.031Z,27.36
2017-08-03T14:59:46.432Z,27.38
2017-08-03T15:02:13.869Z,27.38
2017-08-03T15:04:41.327Z,27.29
2017-08-03T15:07:08.755Z,27.25
2017-08-03T15:09:36.252Z,27.34
2017-08-03T15:12:04.747Z,27.16
2017-08-03T15:14:32.174Z,26.96
2017-08-03T15:16:59.567Z,26.88
2017-08-03T15:19:27.207Z,27.00
2017-08-03T15:21:55.338Z,27.16
2017-08-03T15:24:22.738Z,27.16
2017-08-03T15:26:50.183Z,27.03
2017-08-03T15:29:18.135Z,26.87
2017-08-03T15:31:46.147Z,26.90
2017-08-03T15:34:13.531Z,26.92
2017-08-03T15:36:40.963Z,26.77
2017-08-03T15:39:08.345Z,26.87
2017-08-03T15:41:35.744Z,26.61
2017-08-03T15:44:03.170Z,26.61
2017-08-03T15:46:30.564Z,26.52
2017-08-03T15:48:57.975Z,26.55
2017-08-03T15:51:25.413Z,26.77
2017-08-03T15:53:52.873Z,26.93
2017-08-03T15:56:20.287Z,26.89
2017-08-03T15:58:47.775Z,26.84
2017-08-03T16:01:15.169Z,26.85
2017-08-03T16:03:56.539Z,26.60
2017-08-03T16:06:23.964Z,26.33
2017-08-03T16:08:51.400Z,26.29
2017-08-03T16:11:18.812Z,26.35
2017-08-03T16:13:46.203Z,26.44
2017-08-03T16:16:13.607Z,26.39
2017-08-03T16:18:40.999Z,26.42
2017-08-03T16:21:08.403Z,26.37
2017-08-03T16:23:35.804Z,26.44
2017-08-03T16:26:03.207Z,26.41
2017-08-03T16:28:30.602Z,26.26
2017-08-03T16:30:58.017Z,26.46
2017-08-03T16:33:25.411Z,26.37
2017-08-03T16:35:52.821Z,26.39
2017-08-03T16:38:20.211Z,26.37
2017-08-03T16:40:47.610Z,26.43
2017-08-03T16:43:15.007Z,26.42
2017-08-03T16:45:42.400Z,26.33
2017-08-03T16:48:09.794Z,26.42
2017-08-03T16:50:37.211Z,26.27
2017-08-03T16:53:04.603Z,26.22
2017-08-03T16:55:32.009Z,26.29
2017-08-03T16:57:59.391Z,26.12
2017-08-03T17:00:26.815Z,26.13
2017-08-03T17:02:54.212Z,26.25
2017-08-03T17:05:21.610Z,26.29
2017-08-03T17:07:49.015Z,26.24
2017-08-03T17:10:16.430Z,26.30
2017-08-03T17:12:43.837Z,26.07
2017-08-03T17:15:11.232Z,25.92
2017-08-03T17:17:38.651Z,25.94
2017-08-03T17:20:06.063Z,25.95
2017-08-03T17:22:33.449Z,25.80
2017-08-03T17:25:00.912Z,25.89
2017-08-03T17:27:28.328Z,25.85
2017-08-03T17:29:55.789Z,25.71
2017-08-03T17:32:23.201Z,25.50
2017-08-03T17:34:50.661Z,25.43
2017-08-03T17:37:18.060Z,25.50
2017-08-03T17:39:45.461Z,25.44
2017-08-03T17:42:12.886Z,25.37
2017-08-03T17:44:40.283Z,25.32
2017-08-03T17:47:07.713Z,25.36
2017-08-03T17:49:35.120Z,25.33
2017-08-03T17:52:02.524Z,25.12
2017-08-03T17:54:29.919Z,25.18
2017-08-03T17:56:57.330Z,25.15
2017-08-03T17:59:24.762Z,25.12
2017-08-03T18:01:52.199Z,25.18
2017-08-03T18:04:19.599Z,25.05
2017-08-03T18:06:46.998Z,24.94
2017-08-03T18:09:14.403Z,24.90
2017-08-03T18:11:41.800Z,24.81
2017-08-03T18:14:09.212Z,24.83
2017-08-03T18:16:37.672Z,24.72
2017-08-03T18:19:05.083Z,24.66
2017-08-03T18:21:32.492Z,24.63
2017-08-03T18:23:59.921Z,24.71
2017-08-03T18:26:27.336Z,24.69
2017-08-03T18:28:54.737Z,24.74
2017-08-03T18:31:22.148Z,24.54
2017-08-03T18:33:49.557Z,24.55
2017-08-03T18:36:16.955Z,24.55
2017-08-03T18:38:44.404Z,24.45
2017-08-03T18:41:11.818Z,24.40
2017-08-03T18:43:39.304Z,24.40
2017-08-03T18:46:06.703Z,24.41
2017-08-03T18:48:34.151Z,24.39
2017-08-03T18:51:01.608Z,24.27
2017-08-03T18:53:29.020Z,24.28
2017-08-03T18:55:56.491Z,24.12
2017-08-03T18:58:23.996Z,24.13
2017-08-03T19:00:51.439Z,24.16
2017-08-03T19:03:18.855Z,24.05
2017-08-03T19:05:49.195Z,24.10
2017-08-03T19:08:16.611Z,24.04
2017-08-03T19:10:45.984Z,23.93
2017-08-03T19:13:13.399Z,23.94
2017-08-03T19:15:44.396Z,23.83
2017-08-03T19:18:11.863Z,23.88
2017-08-03T19:20:39.260Z,23.80
2017-08-03T19:23:06.668Z,23.78
2017-08-03T19:25:34.141Z,23.72
2017-08-03T19:28:01.548Z,23.61
2017-08-03T19:30:28.971Z,23.60
2017-08-03T19:32:56.392Z,23.65
2017-08-03T19:35:23.796Z,23.59
2017-08-03T19:37:51.229Z,23.62
2017-08-03T19:40:18.633Z,23.61
2017-08-03T19:42:46.026Z,23.60
2017-08-03T19:45:13.431Z,23.56
2017-08-03T19:47:40.830Z,23.57
2017-08-03T19:50:08.235Z,23.39
2017-08-03T19:52:35.641Z,23.37
2017-08-03T19:55:03.050Z,23.38
2017-08-03T19:57:30.451Z,23.28
2017-08-03T19:59:57.862Z,23.27
2017-08-03T20:02:25.267Z,23.28
2017-08-03T20:04:52.671Z,23.24
2017-08-03T20:07:31.960Z,23.12
2017-08-03T20:10:00.172Z,23.14
2017-08-03T20:12:27.578Z,23.16
2017-08-03T20:14:54.980Z,23.15
2017-08-03T20:17:22.379Z,23.17
2017-08-03T20:19:49.779Z,23.15
2017-08-03T20:22:17.198Z,23.11
2017-08-03T20:24:44.595Z,23.13
2017-08-03T20:27:11.991Z,23.07
2017-08-03T20:29:42.445Z,23.02
2017-08-03T20:32:09.895Z,22.97
2017-08-03T20:34:37.300Z,22.94
2017-08-03T20:37:04.695Z,22.85
2017-08-03T20:39:32.103Z,22.91
2017-08-03T20:41:59.502Z,22.89
2017-08-03T20:44:26.925Z,22.82
2017-08-03T20:46:54.327Z,22.80
2017-08-03T20:49:21.719Z,22.82
2017-08-03T20:51:49.127Z,22.82
2017-08-03T20:54:16.527Z,22.75
2017-08-03T20:56:43.931Z,22.68
2017-08-03T20:59:11.334Z,22.70
2017-08-03T21:01:38.743Z,22.69
2017-08-03T21:04:06.156Z,22.66
2017-08-03T21:06:33.560Z,22.54
2017-08-03T21:09:00.965Z,22.53
2017-08-03T21:11:28.366Z,22.52
2017-08-03T21:13:55.767Z,22.49
2017-08-03T21:16:23.163Z,22.48
2017-08-03T21:18:50.587Z,22.45
2017-08-03T21:21:17.991Z,22.41
2017-08-03T21:23:45.391Z,22.42
2017-08-03T21:26:12.798Z,22.36
2017-08-03T21:28:40.192Z,22.36
2017-08-03T21:31:07.600Z,22.26
2017-08-03T21:33:34.999Z,22.28
2017-08-03T21:36:02.408Z,22.24
2017-08-03T21:38:29.815Z,22.17
2017-08-03T21:40:57.224Z,22.11
2017-08-03T21:43:24.636Z,22.04
2017-08-03T21:45:52.037Z,21.97
2017-08-03T21:48:19.455Z,21.88
2017-08-03T21:50:46.852Z,21.78
2017-08-03T21:53:14.256Z,21.70
2017-08-03T21:55:41.663Z,21.63
2017-08-03T21:58:09.059Z,21.57
2017-08-03T22:00:48.179Z,21.57
2017-08-03T22:03:15.583Z,21.53
2017-08-03T22:05:43.004Z,21.51
2017-08-03T22:08:10.403Z,21.52
2017-08-03T22:10:37.835Z,21.53
2017-08-03T22:13:05.243Z,21.53
2017-08-03T22:15:32.643Z,21.53
2017-08-03T22:18:00.048Z,21.49
2017-08-03T22:20:27.465Z,21.45
2017-08-03T22:22:54.863Z,21.42
2017-08-03T22:25:22.275Z,21.41
2017-08-03T22:27:49.675Z,21.35
2017-08-03T22:30:17.083Z,21.32
2017-08-03T22:32:44.482Z,21.30
2017-08-03T22:35:11.887Z,21.25
2017-08-03T22:37:39.288Z,21.21
2017-08-03T22:40:06.692Z,21.20
2017-08-03T22:42:34.087Z,21.17
2017-08-03T22:45:01.495Z,21.11
2017-08-03T22:47:28.897Z,21.06
2017-08-03T22:49:56.303Z,21.02
2017-08-03T22:52:23.699Z,21.01
2017-08-03T22:54:51.121Z,21.01
2017-08-03T22:57:18.519Z,20.96
2017-08-03T22:59:45.916Z,20.91
2017-08-03T23:02:13.330Z,20.86
2017-08-03T23:04:40.740Z,20.91
2017-08-03T23:07:08.139Z,20.93
2017-08-03T23:09:35.559Z,20.98
2017-08-03T23:12:02.955Z,20.95
2017-08-03T23:14:30.370Z,20.98
2017-08-03T23:16:57.780Z,20.96
2017-08-03T23:19:25.192Z,20.88
2017-08-03T23:21:52.591Z,20.83
2017-08-03T23:24:20.008Z,20.78
2017-08-03T23:26:47.399Z,20.71
2017-08-03T23:29:14.800Z,20.65
2017-08-03T23:31:42.417Z,20.58
2017-08-03T23:34:09.820Z,20.54
2017-08-03T23:36:37.211Z,20.52
2017-08-03T23:39:04.636Z,20.47
2017-08-03T23:41:32.043Z,20.43
2017-08-03T23:43:59.450Z,20.37
2017-08-03T23:46:26.867Z,20.35
2017-08-03T23:48:54.267Z,20.37
2017-08-03T23:51:21.662Z,20.37
2017-08-03T23:53:49.088Z,20.36
2017-08-03T23:56:16.487Z,20.32
2017-08-03T23:58:43.891Z,20.32
